Time;durP1;ratioP1;P1;durP2;ratioP2;P2;SDS_P1;SDS_P2;PMS_P1;PMS_P2;Temp;Humidity;BMP_temperature;BMP_pressure;BME280_temperature;BME280_humidity;BME280_pressure;Samples;Min_cycle;Max_cycle;Signal;HPM_P1;HPM_P2
2022/12/11 00:01:45;;;;;;;29.67;10.73;;;;;;;;;;4772705;30;20040;-81
2022/12/11 00:04:10;;;;;;;29.08;9.65;;;;;;;;;;4749919;30;20455;-80
2022/12/11 00:06:35;;;;;;;38.10;11.77;;;;;;;;;;4765957;30;20032;-81
2022/12/11 00:09:01;;;;;;;26.67;9.65;;;;;;;;;;4767721;30;20063;-82
2022/12/11 00:11:26;;;;;;;30.83;11.32;;;;;;;;;;4771767;30;20493;-82
2022/12/11 00:13:51;;;;;;;31.05;10.25;;;;;;;;;;4766915;30;20042;-81
2022/12/11 00:16:17;;;;;;;32.92;9.90;;;;;;;;;;4752027;30;20088;-81
2022/12/11 00:18:42;;;;;;;32.25;9.75;;;;;;;;;;4753951;30;20146;-81
2022/12/11 00:21:11;;;;;;;34.00;10.90;;;;;;;;;;4765691;30;20039;-81
2022/12/11 00:23:37;;;;;;;30.65;10.27;;;;;;;;;;4765307;30;20027;-81
2022/12/11 00:26:09;;;;;;;30.35;9.73;;;;;;;;;;4764756;30;20038;-80
2022/12/11 00:28:34;;;;;;;30.10;9.88;;;;;;;;;;4758900;30;20036;-81
2022/12/11 00:31:09;;;;;;;27.85;10.20;;;;;;;;;;4769738;30;20028;-81
2022/12/11 00:33:35;;;;;;;30.73;11.07;;;;;;;;;;4757202;30;20035;-80
2022/12/11 00:36:00;;;;;;;33.40;10.45;;;;;;;;;;4764178;30;20038;-80
2022/12/11 00:38:26;;;;;;;31.92;10.80;;;;;;;;;;4767692;30;20043;-80
2022/12/11 00:40:51;;;;;;;30.80;11.48;;;;;;;;;;4768949;30;20055;-80
2022/12/11 00:43:17;;;;;;;30.25;10.10;;;;;;;;;;4756203;30;20032;-80
2022/12/11 00:45:45;;;;;;;32.65;10.98;;;;;;;;;;4743887;30;20032;-80
2022/12/11 00:48:12;;;;;;;34.28;12.85;;;;;;;;;;4748314;30;20044;-80
2022/12/11 00:50:38;;;;;;;32.05;11.10;;;;;;;;;;4761614;30;20040;-80
2022/12/11 00:53:05;;;;;;;31.08;10.30;;;;;;;;;;4760676;30;20401;-81
2022/12/11 00:55:35;;;;;;;33.90;12.02;;;;;;;;;;4762527;30;20118;-80
2022/12/11 00:58:01;;;;;;;32.53;11.18;;;;;;;;;;4769073;30;20038;-80
2022/12/11 01:00:26;;;;;;;35.95;11.18;;;;;;;;;;4749765;30;20028;-81
2022/12/11 01:02:51;;;;;;;29.80;11.55;;;;;;;;;;4765607;30;20043;-80
2022/12/11 01:05:17;;;;;;;33.25;11.38;;;;;;;;;;4741669;30;20040;-81
2022/12/11 01:07:42;;;;;;;33.88;11.88;;;;;;;;;;4761193;30;20134;-80
2022/12/11 01:10:23;;;;;;;36.33;11.82;;;;;;;;;;4733344;30;20397;-79
2022/12/11 01:13:00;;;;;;;32.88;11.15;;;;;;;;;;4758576;30;20489;-80
2022/12/11 01:15:29;;;;;;;38.30;12.68;;;;;;;;;;4744748;30;20042;-80
2022/12/11 01:17:55;;;;;;;40.58;12.52;;;;;;;;;;4758354;30;20071;-80
2022/12/11 01:20:21;;;;;;;42.40;11.73;;;;;;;;;;4766392;30;20043;-80
2022/12/11 01:22:47;;;;;;;33.35;11.45;;;;;;;;;;4758649;30;20416;-81
2022/12/11 01:25:13;;;;;;;32.85;11.63;;;;;;;;;;4760127;30;20038;-80
2022/12/11 01:27:39;;;;;;;40.08;11.65;;;;;;;;;;4766877;30;20040;-80
2022/12/11 01:30:06;;;;;;;41.05;12.98;;;;;;;;;;4764179;30;20534;-81
2022/12/11 01:32:33;;;;;;;37.25;12.80;;;;;;;;;;4764454;30;20631;-80
2022/12/11 01:34:59;;;;;;;42.38;11.75;;;;;;;;;;4740827;30;20524;-77
2022/12/11 01:37:24;;;;;;;38.10;12.15;;;;;;;;;;4755882;30;20118;-81
2022/12/11 01:39:50;;;;;;;40.38;12.80;;;;;;;;;;4762884;30;20032;-81
2022/12/11 01:42:19;;;;;;;35.25;11.73;;;;;;;;;;4767893;30;20039;-80
2022/12/11 01:44:44;;;;;;;35.20;12.65;;;;;;;;;;4763794;30;20045;-80
2022/12/11 01:47:10;;;;;;;35.80;12.20;;;;;;;;;;4744956;30;20423;-80
2022/12/11 01:49:38;;;;;;;32.25;9.98;;;;;;;;;;4762513;30;20176;-80
2022/12/11 01:52:21;;;;;;;39.28;10.65;;;;;;;;;;4746564;30;20047;-81
2022/12/11 01:54:47;;;;;;;36.53;11.57;;;;;;;;;;4740253;30;20036;-80
2022/12/11 01:57:14;;;;;;;42.58;12.18;;;;;;;;;;4745297;30;20040;-80
2022/12/11 01:59:43;;;;;;;31.58;10.48;;;;;;;;;;4749917;30;20043;-80
2022/12/11 02:02:22;;;;;;;33.03;12.27;;;;;;;;;;4759611;30;21629;-81
2022/12/11 02:04:48;;;;;;;38.85;11.43;;;;;;;;;;4762488;30;20028;-80
2022/12/11 02:07:14;;;;;;;34.63;12.07;;;;;;;;;;4736517;30;20050;-80
2022/12/11 02:09:42;;;;;;;40.88;12.52;;;;;;;;;;4755915;30;20039;-81
2022/12/11 02:12:27;;;;;;;39.92;13.63;;;;;;;;;;4762152;30;20123;-80
2022/12/11 02:15:02;;;;;;;35.00;11.90;;;;;;;;;;4742996;30;20042;-80
2022/12/11 02:17:39;;;;;;;32.70;11.73;;;;;;;;;;4757948;30;20054;-80
2022/12/11 02:20:21;;;;;;;37.47;11.95;;;;;;;;;;4737817;30;20052;-80
2022/12/11 02:23:01;;;;;;;39.42;13.27;;;;;;;;;;4762923;30;20055;-80
2022/12/11 02:25:56;;;;;;;32.28;11.70;;;;;;;;;;4744218;30;20032;-81
2022/12/11 02:28:30;;;;;;;30.65;12.18;;;;;;;;;;4759619;30;20035;-80
2022/12/11 02:31:12;;;;;;;36.78;12.18;;;;;;;;;;4756634;30;20081;-80
2022/12/11 02:33:47;;;;;;;34.50;11.90;;;;;;;;;;4738837;30;20036;-80
2022/12/11 02:36:17;;;;;;;31.40;10.57;;;;;;;;;;4761662;30;20386;-81
2022/12/11 02:38:49;;;;;;;34.72;10.85;;;;;;;;;;4762304;30;20414;-80
2022/12/11 02:41:16;;;;;;;32.97;11.90;;;;;;;;;;4751450;30;20110;-80
2022/12/11 02:43:43;;;;;;;39.67;11.45;;;;;;;;;;4765488;30;20036;-80
2022/12/11 02:46:10;;;;;;;37.20;12.85;;;;;;;;;;4751382;30;20043;-80
2022/12/11 02:48:37;;;;;;;32.85;10.85;;;;;;;;;;4761171;30;20539;-80
2022/12/11 02:51:05;;;;;;;30.27;10.85;;;;;;;;;;4742773;30;20489;-80
2022/12/11 02:53:32;;;;;;;31.30;11.48;;;;;;;;;;4756135;30;20061;-80
2022/12/11 02:56:25;;;;;;;30.60;10.77;;;;;;;;;;4764363;30;20039;-79
2022/12/11 02:58:56;;;;;;;32.08;10.98;;;;;;;;;;4760900;30;20051;-80
2022/12/11 03:01:21;;;;;;;29.52;11.57;;;;;;;;;;4763743;30;20036;-80
2022/12/11 03:03:47;;;;;;;30.88;10.98;;;;;;;;;;4761825;30;20753;-79
2022/12/11 03:06:17;;;;;;;28.88;11.20;;;;;;;;;;4763776;30;20042;-80
2022/12/11 03:08:42;;;;;;;31.35;10.55;;;;;;;;;;4764658;30;20568;-80
2022/12/11 03:11:11;;;;;;;34.22;12.15;;;;;;;;;;4760829;30;20027;-78
2022/12/11 03:13:39;;;;;;;27.58;10.43;;;;;;;;;;4769560;30;20035;-80
2022/12/11 03:16:19;;;;;;;29.63;11.10;;;;;;;;;;4762670;30;20393;-79
2022/12/11 03:19:10;;;;;;;23.55;9.07;;;;;;;;;;4744939;30;20067;-81
2022/12/11 03:21:44;;;;;;;22.92;9.32;;;;;;;;;;4762231;30;20429;-80
2022/12/11 03:24:17;;;;;;;26.15;10.52;;;;;;;;;;4753708;30;20058;-80
2022/12/11 03:26:53;;;;;;;27.73;9.95;;;;;;;;;;4766647;30;20023;-80
2022/12/11 03:29:26;;;;;;;28.13;10.75;;;;;;;;;;4749266;30;20032;-80
2022/12/11 03:32:02;;;;;;;28.48;10.07;;;;;;;;;;4766528;30;20039;-79
2022/12/11 03:34:37;;;;;;;23.75;10.07;;;;;;;;;;4758460;30;20127;-80
2022/12/11 03:37:04;;;;;;;24.85;10.52;;;;;;;;;;4761942;30;20491;-80
2022/12/11 03:39:37;;;;;;;24.67;10.00;;;;;;;;;;4763413;30;20036;-79
2022/12/11 03:42:06;;;;;;;26.42;10.63;;;;;;;;;;4764503;30;20461;-79
2022/12/11 03:44:34;;;;;;;24.77;9.30;;;;;;;;;;4750037;30;20035;-81
2022/12/11 03:47:02;;;;;;;26.20;10.68;;;;;;;;;;4764034;30;20048;-79
2022/12/11 03:49:33;;;;;;;25.85;10.25;;;;;;;;;;4747677;30;20039;-81
2022/12/11 03:52:00;;;;;;;28.35;10.75;;;;;;;;;;4763348;30;20092;-77
2022/12/11 03:54:26;;;;;;;26.38;10.20;;;;;;;;;;4757382;30;20498;-80
2022/12/11 03:56:55;;;;;;;26.63;10.18;;;;;;;;;;4747066;30;20031;-80
2022/12/11 03:59:20;;;;;;;27.20;10.82;;;;;;;;;;4764437;30;20043;-80
2022/12/11 04:01:46;;;;;;;24.15;10.43;;;;;;;;;;4762153;30;20028;-79
2022/12/11 04:04:11;;;;;;;25.02;10.82;;;;;;;;;;4761024;30;20039;-81
2022/12/11 04:06:37;;;;;;;22.33;9.27;;;;;;;;;;4763671;30;20108;-80
2022/12/11 04:09:02;;;;;;;24.88;10.70;;;;;;;;;;4761798;30;20560;-80
2022/12/11 04:11:33;;;;;;;20.20;9.32;;;;;;;;;;4765354;30;20619;-80
2022/12/11 04:16:47;;;;;;;20.67;9.52;;;;;;;;;;4757954;30;20062;-78
2022/12/11 04:24:41;;;;;;;18.83;9.50;;;;;;;;;;4770625;30;20489;-80
2022/12/11 04:27:07;;;;;;;20.27;8.23;;;;;;;;;;4764174;30;20036;-80
2022/12/11 04:29:32;;;;;;;18.90;8.93;;;;;;;;;;4762056;30;20034;-80
2022/12/11 04:31:58;;;;;;;19.83;9.20;;;;;;;;;;4747717;30;20032;-79
2022/12/11 04:34:23;;;;;;;20.75;8.80;;;;;;;;;;4745158;30;20032;-80
2022/12/11 04:36:49;;;;;;;17.50;8.38;;;;;;;;;;4758906;30;20745;-80
2022/12/11 04:39:14;;;;;;;14.57;7.95;;;;;;;;;;4766202;30;20086;-80
2022/12/11 04:41:40;;;;;;;17.35;7.28;;;;;;;;;;4756457;30;20462;-79
2022/12/11 04:44:06;;;;;;;18.33;8.15;;;;;;;;;;4743219;30;21251;-80
2022/12/11 04:46:32;;;;;;;19.42;8.55;;;;;;;;;;4763757;30;20032;-80
2022/12/11 04:48:59;;;;;;;21.73;8.93;;;;;;;;;;4769418;30;20048;-79
2022/12/11 04:51:25;;;;;;;15.88;8.18;;;;;;;;;;4765023;30;20038;-80
2022/12/11 04:53:50;;;;;;;19.15;8.75;;;;;;;;;;4752771;30;20470;-80
2022/12/11 04:56:16;;;;;;;17.70;8.40;;;;;;;;;;4741459;30;20405;-79
2022/12/11 04:58:42;;;;;;;13.57;6.22;;;;;;;;;;4744916;30;20031;-80
2022/12/11 05:01:14;;;;;;;15.73;8.27;;;;;;;;;;4761223;30;20111;-80
2022/12/11 05:03:40;;;;;;;17.17;8.23;;;;;;;;;;4758397;30;20098;-80
2022/12/11 05:06:07;;;;;;;15.68;7.47;;;;;;;;;;4759008;30;20027;-78
2022/12/11 05:08:34;;;;;;;18.55;8.10;;;;;;;;;;4759851;30;20036;-79
2022/12/11 05:11:01;;;;;;;17.50;8.57;;;;;;;;;;4760636;30;20047;-78
2022/12/11 05:13:28;;;;;;;18.73;8.50;;;;;;;;;;4764801;30;20115;-80
2022/12/11 05:15:53;;;;;;;20.10;8.43;;;;;;;;;;4755377;30;20081;-80
2022/12/11 05:18:19;;;;;;;15.35;8.13;;;;;;;;;;4744278;30;20055;-81
2022/12/11 05:20:53;;;;;;;14.93;7.63;;;;;;;;;;4760888;30;22264;-81
2022/12/11 05:23:18;;;;;;;17.88;7.53;;;;;;;;;;4760987;30;20030;-80
2022/12/11 05:25:51;;;;;;;17.38;7.60;;;;;;;;;;4767171;30;20114;-80
2022/12/11 05:28:16;;;;;;;20.08;8.23;;;;;;;;;;4767044;30;20031;-80
2022/12/11 05:30:41;;;;;;;16.02;8.05;;;;;;;;;;4751790;30;20035;-80
2022/12/11 05:33:12;;;;;;;16.52;7.68;;;;;;;;;;4759749;30;20044;-78
2022/12/11 05:35:38;;;;;;;17.80;7.53;;;;;;;;;;4759222;30;20035;-80
2022/12/11 05:38:03;;;;;;;17.67;7.80;;;;;;;;;;4761308;30;20079;-80
2022/12/11 05:40:28;;;;;;;17.73;8.18;;;;;;;;;;4769837;30;20032;-80
2022/12/11 05:42:54;;;;;;;15.68;7.78;;;;;;;;;;4764622;30;20036;-80
2022/12/11 05:45:19;;;;;;;17.88;7.28;;;;;;;;;;4749950;30;20402;-80
2022/12/11 05:47:44;;;;;;;13.40;6.60;;;;;;;;;;4763194;30;20038;-80
2022/12/11 05:50:10;;;;;;;14.00;6.80;;;;;;;;;;4758200;30;20131;-78
2022/12/11 05:52:35;;;;;;;17.98;7.40;;;;;;;;;;4762344;30;20048;-80
2022/12/11 05:55:01;;;;;;;15.55;7.40;;;;;;;;;;4763076;30;20557;-81
2022/12/11 05:57:29;;;;;;;15.27;7.28;;;;;;;;;;4769473;30;20032;-80
2022/12/11 05:59:54;;;;;;;14.73;7.13;;;;;;;;;;4763392;30;20085;-80
2022/12/11 06:02:19;;;;;;;16.20;7.85;;;;;;;;;;4756737;30;20028;-80
2022/12/11 06:04:45;;;;;;;16.75;7.70;;;;;;;;;;4747222;30;20444;-81
2022/12/11 06:07:10;;;;;;;16.80;8.05;;;;;;;;;;4746630;30;20035;-80
2022/12/11 06:09:35;;;;;;;14.30;7.43;;;;;;;;;;4761859;30;20032;-80
2022/12/11 06:12:01;;;;;;;16.90;8.18;;;;;;;;;;4762677;30;20035;-80
2022/12/11 06:14:26;;;;;;;16.77;8.20;;;;;;;;;;4744203;30;20398;-79
2022/12/11 06:16:52;;;;;;;16.23;7.35;;;;;;;;;;4749608;30;20564;-80
2022/12/11 06:19:17;;;;;;;16.13;6.97;;;;;;;;;;4757220;30;22082;-80
2022/12/11 06:21:44;;;;;;;16.45;7.10;;;;;;;;;;4763006;30;20140;-79
2022/12/11 06:24:10;;;;;;;13.35;5.97;;;;;;;;;;4758188;30;20537;-78
2022/12/11 06:26:35;;;;;;;14.68;6.32;;;;;;;;;;4760203;30;20057;-78
2022/12/11 06:29:01;;;;;;;18.42;6.47;;;;;;;;;;4761378;30;20478;-80
2022/12/11 06:31:26;;;;;;;13.55;6.57;;;;;;;;;;4764576;30;20062;-79
2022/12/11 06:33:51;;;;;;;12.25;5.43;;;;;;;;;;4753614;30;20157;-80
2022/12/11 06:36:20;;;;;;;13.00;6.50;;;;;;;;;;4761471;30;20036;-80
2022/12/11 06:38:46;;;;;;;14.00;6.10;;;;;;;;;;4743436;30;20043;-80
2022/12/11 06:41:12;;;;;;;15.20;6.13;;;;;;;;;;4760382;29;20024;-80
2022/12/11 06:43:39;;;;;;;13.85;6.63;;;;;;;;;;4766837;30;20032;-80
2022/12/11 06:46:09;;;;;;;12.07;5.38;;;;;;;;;;4755889;30;20137;-80
2022/12/11 06:48:36;;;;;;;12.48;5.97;;;;;;;;;;4760223;30;20055;-78
2022/12/11 06:51:10;;;;;;;12.18;6.35;;;;;;;;;;4758290;30;20028;-80
2022/12/11 06:53:35;;;;;;;12.60;5.90;;;;;;;;;;4754807;30;20030;-80
2022/12/11 06:56:09;;;;;;;11.65;6.15;;;;;;;;;;4765414;30;20040;-80
2022/12/11 06:58:35;;;;;;;12.82;5.53;;;;;;;;;;4771562;30;20393;-80
2022/12/11 07:01:01;;;;;;;15.52;6.97;;;;;;;;;;4763199;30;20048;-79
2022/12/11 07:03:27;;;;;;;14.93;6.20;;;;;;;;;;4766538;30;20077;-80
2022/12/11 07:05:52;;;;;;;13.60;6.38;;;;;;;;;;4763771;30;20539;-80
2022/12/11 07:08:18;;;;;;;11.10;5.82;;;;;;;;;;4752479;30;20385;-80
2022/12/11 07:10:43;;;;;;;12.77;6.07;;;;;;;;;;4765081;30;20028;-80
2022/12/11 07:13:08;;;;;;;16.48;6.88;;;;;;;;;;4744000;30;20341;-79
2022/12/11 07:15:35;;;;;;;13.55;5.88;;;;;;;;;;4762521;30;20070;-80
2022/12/11 07:18:00;;;;;;;15.30;7.22;;;;;;;;;;4763411;30;20064;-80
2022/12/11 07:20:25;;;;;;;16.35;6.22;;;;;;;;;;4761812;30;20032;-80
2022/12/11 07:22:53;;;;;;;13.23;6.53;;;;;;;;;;4767756;30;20035;-80
2022/12/11 07:25:18;;;;;;;12.95;6.30;;;;;;;;;;4751992;30;20077;-80
2022/12/11 07:27:43;;;;;;;13.63;5.93;;;;;;;;;;4767740;30;20055;-81
2022/12/11 07:30:10;;;;;;;14.95;6.53;;;;;;;;;;4768440;30;20039;-81
2022/12/11 07:32:38;;;;;;;14.45;6.80;;;;;;;;;;4749441;30;20457;-80
2022/12/11 07:35:04;;;;;;;13.85;6.55;;;;;;;;;;4763997;30;20031;-80
2022/12/11 07:37:29;;;;;;;12.23;6.72;;;;;;;;;;4748550;30;20088;-80
2022/12/11 07:39:54;;;;;;;14.13;6.00;;;;;;;;;;4764564;30;20080;-80
2022/12/11 07:42:20;;;;;;;11.93;6.72;;;;;;;;;;4750879;30;20066;-81
2022/12/11 07:44:45;;;;;;;13.57;6.88;;;;;;;;;;4763982;30;20032;-80
2022/12/11 07:47:11;;;;;;;13.95;7.18;;;;;;;;;;4766914;30;20070;-80
2022/12/11 07:49:36;;;;;;;13.27;6.65;;;;;;;;;;4763390;30;20027;-81
2022/12/11 07:52:01;;;;;;;14.05;6.95;;;;;;;;;;4746635;30;20032;-81
2022/12/11 07:54:27;;;;;;;14.70;6.82;;;;;;;;;;4764718;30;20028;-81
2022/12/11 07:56:52;;;;;;;14.68;7.07;;;;;;;;;;4746248;30;20043;-81
2022/12/11 07:59:18;;;;;;;13.20;5.95;;;;;;;;;;4764493;30;20032;-80
2022/12/11 08:01:43;;;;;;;15.70;7.40;;;;;;;;;;4753686;30;20390;-80
2022/12/11 08:04:10;;;;;;;13.73;6.75;;;;;;;;;;4751830;30;20448;-81
2022/12/11 08:06:37;;;;;;;16.63;7.38;;;;;;;;;;4752053;30;20060;-80
2022/12/11 08:09:06;;;;;;;14.38;6.32;;;;;;;;;;4766311;30;20739;-80
2022/12/11 08:11:31;;;;;;;16.25;7.15;;;;;;;;;;4750253;30;21742;-80
2022/12/11 08:13:58;;;;;;;14.90;7.30;;;;;;;;;;4760641;30;20115;-80
2022/12/11 08:16:24;;;;;;;12.73;6.35;;;;;;;;;;4762455;30;20171;-81
2022/12/11 08:18:49;;;;;;;15.35;6.82;;;;;;;;;;4766055;30;20083;-80
2022/12/11 08:21:25;;;;;;;14.18;7.60;;;;;;;;;;4764166;30;20044;-79
2022/12/11 08:23:52;;;;;;;12.55;5.90;;;;;;;;;;4768198;30;20032;-80
2022/12/11 08:26:20;;;;;;;15.13;6.43;;;;;;;;;;4761682;30;20074;-80
2022/12/11 08:28:46;;;;;;;12.27;6.18;;;;;;;;;;4752627;30;20127;-80
2022/12/11 08:31:13;;;;;;;13.20;6.63;;;;;;;;;;4764793;30;20450;-80
2022/12/11 08:33:39;;;;;;;12.85;5.88;;;;;;;;;;4764005;30;20485;-80
2022/12/11 08:36:11;;;;;;;12.20;5.78;;;;;;;;;;4749254;30;20027;-80
2022/12/11 08:38:37;;;;;;;12.48;6.10;;;;;;;;;;4749456;30;20042;-80
2022/12/11 08:41:11;;;;;;;13.20;6.43;;;;;;;;;;4763985;30;20043;-80
2022/12/11 08:43:37;;;;;;;11.38;5.72;;;;;;;;;;4749727;30;20405;-80
2022/12/11 08:46:03;;;;;;;10.93;5.55;;;;;;;;;;4754700;30;20687;-81
2022/12/11 08:48:28;;;;;;;13.27;5.88;;;;;;;;;;4757601;30;20024;-81
2022/12/11 08:50:53;;;;;;;11.55;5.80;;;;;;;;;;4768222;30;20032;-81
2022/12/11 08:53:19;;;;;;;13.55;6.13;;;;;;;;;;4765149;30;20473;-81
2022/12/11 08:55:44;;;;;;;12.57;6.18;;;;;;;;;;4747360;30;20035;-81
2022/12/11 08:58:09;;;;;;;12.40;6.10;;;;;;;;;;4764925;30;20043;-81
2022/12/11 09:00:35;;;;;;;12.95;6.05;;;;;;;;;;4764212;30;20039;-81
2022/12/11 09:03:01;;;;;;;12.93;6.45;;;;;;;;;;4761528;30;20089;-81
2022/12/11 09:05:26;;;;;;;14.05;6.50;;;;;;;;;;4766059;30;20104;-81
2022/12/11 09:07:51;;;;;;;15.23;6.03;;;;;;;;;;4769717;30;20425;-81
2022/12/11 09:10:17;;;;;;;12.55;6.05;;;;;;;;;;4766041;30;20040;-81
2022/12/11 09:12:42;;;;;;;14.60;6.95;;;;;;;;;;4765534;30;20035;-81
2022/12/11 09:15:08;;;;;;;14.07;6.93;;;;;;;;;;4761172;30;20028;-80
2022/12/11 09:17:34;;;;;;;13.15;6.15;;;;;;;;;;4758630;30;20589;-81
2022/12/11 09:19:59;;;;;;;13.82;6.93;;;;;;;;;;4775190;30;20528;-80
2022/12/11 09:22:25;;;;;;;16.50;5.97;;;;;;;;;;4763465;30;20028;-80
2022/12/11 09:24:50;;;;;;;14.25;7.05;;;;;;;;;;4772786;30;20039;-80
2022/12/11 09:27:16;;;;;;;17.77;7.35;;;;;;;;;;4768415;30;20401;-81
2022/12/11 09:29:41;;;;;;;17.35;6.88;;;;;;;;;;4749135;30;20031;-81
2022/12/11 09:32:06;;;;;;;13.55;7.07;;;;;;;;;;4763476;30;20490;-81
2022/12/11 09:34:32;;;;;;;15.68;7.15;;;;;;;;;;4752434;30;20042;-80
2022/12/11 09:36:58;;;;;;;14.07;6.57;;;;;;;;;;4760611;30;20394;-81
2022/12/11 09:39:23;;;;;;;15.07;6.97;;;;;;;;;;4764535;30;20459;-81
2022/12/11 09:42:17;;;;;;;14.55;6.65;;;;;;;;;;4768815;30;20032;-81
2022/12/11 09:44:45;;;;;;;;;;;;;;;;;;4774480;30;20027;-78
2022/12/11 09:47:33;;;;;;;14.35;6.55;;;;;;;;;;4749106;30;20430;-78
2022/12/11 09:50:08;;;;;;;11.90;5.95;;;;;;;;;;4761046;30;20393;-78
2022/12/11 09:52:39;;;;;;;11.18;5.65;;;;;;;;;;4743151;30;20559;-81
2022/12/11 09:55:23;;;;;;;14.77;7.18;;;;;;;;;;4742321;30;20031;-81
2022/12/11 09:58:02;;;;;;;12.80;6.57;;;;;;;;;;4750002;30;20040;-80
2022/12/11 10:00:46;;;;;;;15.55;7.03;;;;;;;;;;4757672;30;20725;-80
2022/12/11 10:03:33;;;;;;;15.18;6.97;;;;;;;;;;4760032;30;20042;-80
2022/12/11 10:06:06;;;;;;;16.73;7.38;;;;;;;;;;4763856;30;20036;-79
2022/12/11 10:08:41;;;;;;;13.90;6.30;;;;;;;;;;4766975;30;20067;-81
2022/12/11 10:11:31;;;;;;;17.70;7.43;;;;;;;;;;4762628;30;20506;-81
2022/12/11 10:14:31;;;;;;;15.45;7.00;;;;;;;;;;4751831;30;20494;-81
2022/12/11 10:17:11;;;;;;;16.67;7.28;;;;;;;;;;4742967;30;20125;-81
2022/12/11 10:19:37;;;;;;;16.02;7.38;;;;;;;;;;4762314;30;20456;-81
2022/12/11 10:22:02;;;;;;;17.48;7.72;;;;;;;;;;4768505;30;20043;-81
2022/12/11 10:24:48;;;;;;;15.98;7.20;;;;;;;;;;4765689;30;20035;-81
2022/12/11 10:27:20;;;;;;;14.70;7.22;;;;;;;;;;4769174;30;20092;-81
2022/12/11 10:29:53;;;;;;;16.83;7.23;;;;;;;;;;4768332;30;20032;-81
2022/12/11 10:32:25;;;;;;;14.80;7.13;;;;;;;;;;4772738;30;20034;-80
2022/12/11 10:34:59;;;;;;;13.47;6.87;;;;;;;;;;4764996;30;20054;-80
2022/12/11 10:37:24;;;;;;;15.52;7.53;;;;;;;;;;4771857;30;20496;-81
2022/12/11 10:39:50;;;;;;;14.18;6.57;;;;;;;;;;4775531;29;20051;-79
2022/12/11 10:42:19;;;;;;;12.82;6.68;;;;;;;;;;4766783;30;20390;-81
2022/12/11 10:45:02;;;;;;;16.83;8.20;;;;;;;;;;4755129;30;20031;-81
2022/12/11 10:47:28;;;;;;;15.85;6.80;;;;;;;;;;4770873;30;20050;-81
2022/12/11 10:50:00;;;;;;;15.35;7.10;;;;;;;;;;4772387;30;20040;-81
2022/12/11 10:52:27;;;;;;;18.80;7.80;;;;;;;;;;4766539;30;20063;-80
2022/12/11 10:55:00;;;;;;;15.82;7.38;;;;;;;;;;4772342;30;20071;-81
2022/12/11 10:57:31;;;;;;;17.30;7.53;;;;;;;;;;4765876;30;20043;-80
2022/12/11 10:59:58;;;;;;;16.50;7.43;;;;;;;;;;4762702;30;20506;-80
2022/12/11 11:02:31;;;;;;;12.85;6.78;;;;;;;;;;4771854;30;20465;-80
2022/12/11 11:04:57;;;;;;;;;;;;;;;;;;4750825;30;20051;-80
2022/12/11 11:07:29;;;;;;;15.40;6.78;;;;;;;;;;4758464;30;19922;-80
2022/12/11 11:10:09;;;;;;;14.38;7.05;;;;;;;;;;4763993;30;20050;-80
2022/12/11 11:12:41;;;;;;;14.15;7.15;;;;;;;;;;4765543;30;20032;-80
2022/12/11 11:15:12;;;;;;;16.80;8.13;;;;;;;;;;4765089;30;20070;-80
2022/12/11 11:17:50;;;;;;;17.20;7.68;;;;;;;;;;4772317;30;20051;-80
2022/12/11 11:20:18;;;;;;;16.08;7.63;;;;;;;;;;4766053;30;20063;-80
2022/12/11 11:22:51;;;;;;;19.10;8.60;;;;;;;;;;4769006;30;20040;-80
2022/12/11 11:25:19;;;;;;;18.70;8.32;;;;;;;;;;4752773;30;20484;-81
2022/12/11 11:27:58;;;;;;;21.60;8.25;;;;;;;;;;4748591;30;20996;-80
2022/12/11 11:30:23;;;;;;;16.88;7.00;;;;;;;;;;4762834;30;20039;-80
2022/12/11 11:33:10;;;;;;;18.30;8.45;;;;;;;;;;4761922;30;20040;-80
2022/12/11 11:35:35;;;;;;;18.90;7.90;;;;;;;;;;4756850;30;20040;-80
2022/12/11 11:38:24;;;;;;;14.20;6.53;;;;;;;;;;4761481;30;20047;-80
2022/12/11 11:40:59;;;;;;;18.30;8.05;;;;;;;;;;4758248;30;20659;-81
2022/12/11 11:43:45;;;;;;;15.55;7.68;;;;;;;;;;4760233;30;20398;-80
2022/12/11 11:46:19;;;;;;;17.40;7.47;;;;;;;;;;4765775;30;20096;-78
2022/12/11 11:48:47;;;;;;;18.75;7.95;;;;;;;;;;4756560;30;20100;-81
2022/12/11 11:51:20;;;;;;;19.83;7.63;;;;;;;;;;4765188;30;20032;-80
2022/12/11 11:53:49;;;;;;;17.55;8.38;;;;;;;;;;4761167;30;20110;-80
2022/12/11 11:56:46;;;;;;;17.70;7.80;;;;;;;;;;4750063;30;20040;-80
2022/12/11 11:59:24;;;;;;;20.40;8.45;;;;;;;;;;4756808;30;20142;-80
2022/12/11 12:01:52;;;;;;;18.40;8.00;;;;;;;;;;4756494;30;20382;-79
2022/12/11 12:04:18;;;;;;;19.08;8.75;;;;;;;;;;4761525;30;20039;-80
2022/12/11 12:07:18;;;;;;;16.70;8.35;;;;;;;;;;4750055;30;20058;-80
2022/12/11 12:09:55;;;;;;;16.83;7.43;;;;;;;;;;4758018;30;20036;-80
2022/12/11 12:12:28;;;;;;;14.88;6.75;;;;;;;;;;4763963;30;20055;-80
2022/12/11 12:15:17;;;;;;;15.52;7.70;;;;;;;;;;4766545;30;20130;-80
2022/12/11 12:17:51;;;;;;;17.63;8.18;;;;;;;;;;4762777;30;20035;-80
2022/12/11 12:20:29;;;;;;;20.45;9.15;;;;;;;;;;4758539;30;20291;-81
2022/12/11 12:23:04;;;;;;;16.73;8.30;;;;;;;;;;4745611;30;20027;-81
2022/12/11 12:25:47;;;;;;;16.48;7.97;;;;;;;;;;4760682;30;20043;-80
2022/12/11 12:28:25;;;;;;;16.98;8.02;;;;;;;;;;4745312;30;20040;-80
2022/12/11 12:31:21;;;;;;;15.98;7.82;;;;;;;;;;4759701;30;20043;-80
2022/12/11 12:34:13;;;;;;;14.05;7.40;;;;;;;;;;4757121;30;20039;-80
2022/12/11 12:37:00;;;;;;;14.40;7.10;;;;;;;;;;4727760;30;20039;-77
2022/12/11 12:40:02;;;;;;;16.60;7.35;;;;;;;;;;4760476;30;20043;-80
2022/12/11 12:42:37;;;;;;;17.33;8.90;;;;;;;;;;4758554;30;20044;-80
2022/12/11 12:45:13;;;;;;;23.88;11.85;;;;;;;;;;4758246;30;20572;-80
2022/12/11 12:47:42;;;;;;;21.17;10.18;;;;;;;;;;4753856;30;20035;-80
2022/12/11 12:50:15;;;;;;;23.17;8.95;;;;;;;;;;4747400;30;20047;-81
2022/12/11 12:52:41;;;;;;;18.05;8.52;;;;;;;;;;4766478;30;20079;-80
2022/12/11 12:55:21;;;;;;;16.77;7.75;;;;;;;;;;4760459;30;20036;-80
2022/12/11 12:58:03;;;;;;;18.42;7.90;;;;;;;;;;4745042;30;20063;-81
2022/12/11 13:00:36;;;;;;;16.70;7.82;;;;;;;;;;4759628;30;20489;-81
2022/12/11 13:03:12;;;;;;;18.67;8.70;;;;;;;;;;4755422;30;20046;-80
2022/12/11 13:05:41;;;;;;;16.58;7.22;;;;;;;;;;4758023;30;20046;-81
2022/12/11 13:08:07;;;;;;;16.25;7.80;;;;;;;;;;4760828;30;20088;-81
2022/12/11 13:10:35;;;;;;;15.45;7.60;;;;;;;;;;4762205;30;20758;-81
2022/12/11 13:13:03;;;;;;;19.38;8.65;;;;;;;;;;4764303;30;20152;-81
2022/12/11 13:15:31;;;;;;;16.67;8.80;;;;;;;;;;4762334;30;20043;-81
2022/12/11 13:17:58;;;;;;;18.65;8.38;;;;;;;;;;4765461;30;20070;-81
2022/12/11 13:20:26;;;;;;;17.10;8.13;;;;;;;;;;4766865;30;20564;-81
2022/12/11 13:22:54;;;;;;;17.48;8.23;;;;;;;;;;4765729;30;20047;-81
2022/12/11 13:25:28;;;;;;;19.27;8.43;;;;;;;;;;4759728;30;20648;-80
2022/12/11 13:28:03;;;;;;;;;;;;;;;;;;4762794;30;20572;-80
2022/12/11 13:30:28;;;;;;;17.08;7.47;;;;;;;;;;4766270;30;19926;-80
2022/12/11 13:33:04;;;;;;;17.95;8.40;;;;;;;;;;4744949;30;20090;-80
2022/12/11 13:35:32;;;;;;;18.40;7.95;;;;;;;;;;4763801;30;20040;-80
2022/12/11 13:38:05;;;;;;;18.17;7.57;;;;;;;;;;4747115;30;20112;-80
2022/12/11 13:40:41;;;;;;;17.50;8.48;;;;;;;;;;4748128;30;20477;-79
2022/12/11 13:43:22;;;;;;;16.35;8.23;;;;;;;;;;4765037;30;20057;-80
2022/12/11 13:46:00;;;;;;;14.70;7.15;;;;;;;;;;4748631;30;20114;-81
2022/12/11 13:48:33;;;;;;;17.92;8.25;;;;;;;;;;4763707;30;20516;-81
2022/12/11 13:51:00;;;;;;;16.63;7.82;;;;;;;;;;4761363;30;20537;-80
2022/12/11 13:53:26;;;;;;;16.52;7.60;;;;;;;;;;4759682;30;20154;-81
2022/12/11 13:55:59;;;;;;;19.15;8.57;;;;;;;;;;4762832;30;20134;-80
2022/12/11 13:58:26;;;;;;;15.63;7.38;;;;;;;;;;4758118;30;20054;-80
2022/12/11 14:01:12;;;;;;;16.27;7.22;;;;;;;;;;4756567;30;20493;-80
2022/12/11 14:03:55;;;;;;;16.65;7.97;;;;;;;;;;4759006;30;20532;-80
2022/12/11 14:06:21;;;;;;;;;;;;;;;;;;4764013;30;20040;-80
2022/12/11 14:08:53;;;;;;;19.55;7.72;;;;;;;;;;4762617;30;19933;-80
2022/12/11 14:11:28;;;;;;;17.15;7.72;;;;;;;;;;4752810;30;20096;-80
2022/12/11 14:14:00;;;;;;;16.35;7.85;;;;;;;;;;4758237;30;20058;-81
2022/12/11 14:16:26;;;;;;;19.05;8.65;;;;;;;;;;4762585;30;20585;-80
2022/12/11 14:18:52;;;;;;;15.52;7.43;;;;;;;;;;4762436;30;20055;-81
2022/12/11 14:21:21;;;;;;;16.80;8.15;;;;;;;;;;4765153;30;20105;-80
2022/12/11 14:23:52;;;;;;;17.80;7.82;;;;;;;;;;4760584;30;20395;-81
2022/12/11 14:26:24;;;;;;;17.05;7.65;;;;;;;;;;4763882;30;20532;-80
2022/12/11 14:28:49;;;;;;;16.23;8.65;;;;;;;;;;4744475;30;20802;-80
2022/12/11 14:31:24;;;;;;;16.30;7.55;;;;;;;;;;4760478;30;20135;-80
2022/12/11 14:33:54;;;;;;;19.77;8.23;;;;;;;;;;4759662;30;20035;-81
2022/12/11 14:36:20;;;;;;;19.15;8.40;;;;;;;;;;4763501;30;20042;-80
2022/12/11 14:38:54;;;;;;;16.15;8.75;;;;;;;;;;4761011;30;20123;-80
2022/12/11 14:41:59;;;;;;;19.30;9.15;;;;;;;;;;4761186;30;20124;-80
2022/12/11 14:44:28;;;;;;;19.08;8.38;;;;;;;;;;4754842;30;20047;-81
2022/12/11 14:46:58;;;;;;;18.92;8.32;;;;;;;;;;4757738;30;20040;-80
2022/12/11 14:49:44;;;;;;;17.40;8.85;;;;;;;;;;4762776;30;20383;-80
2022/12/11 14:52:24;;;;;;;17.27;8.82;;;;;;;;;;4767773;30;20158;-81
2022/12/11 14:54:55;;;;;;;18.27;8.52;;;;;;;;;;4751503;30;20127;-80